Time;durP1;ratioP1;P1;durP2;ratioP2;P2;SDS_P1;SDS_P2;PMS_P1;PMS_P2;Temp;Humidity;BMP_temperature;BMP_pressure;BME280_temperature;BME280_humidity;BME280_pressure;Samples;Min_cycle;Max_cycle;Signal;HPM_P1;HPM_P2
2022/04/29 02:08:17;;;;;;;5.97;5.37;;;7.00;99.90;;;;;;5010860;28;20264;-74
2022/04/29 02:10:43;;;;;;;7.13;5.67;;;6.70;99.90;;;;;;4978727;28;20182;-74
2022/04/29 02:13:08;;;;;;;5.93;5.23;;;6.80;99.90;;;;;;4978429;28;20187;-74
2022/04/29 02:15:34;;;;;;;6.87;5.23;;;6.90;99.90;;;;;;4995061;28;20198;-74
2022/04/29 02:18:00;;;;;;;7.70;5.70;;;6.80;99.90;;;;;;4979806;28;20198;-76
2022/04/29 02:20:26;;;;;;;6.20;5.53;;;6.70;99.90;;;;;;5014855;28;20188;-77
2022/04/29 02:22:53;;;;;;;7.00;5.43;;;6.60;99.90;;;;;;5014449;28;20174;-77
2022/04/29 02:25:19;;;;;;;7.17;5.83;;;6.70;99.90;;;;;;4998395;28;20181;-77
2022/04/29 02:27:44;;;;;;;6.27;5.57;;;6.70;99.90;;;;;;4982040;28;20250;-77
2022/04/29 02:30:10;;;;;;;6.80;5.53;;;6.80;99.90;;;;;;4998167;28;20216;-77
2022/04/29 02:32:37;;;;;;;8.63;5.60;;;6.80;99.90;;;;;;4997753;28;20179;-77
2022/04/29 02:35:02;;;;;;;5.90;5.30;;;6.80;99.90;;;;;;4997995;28;20193;-77
2022/04/29 02:37:28;;;;;;;9.43;6.17;;;6.70;99.90;;;;;;4981664;28;20205;-77
2022/04/29 02:39:54;;;;;;;7.40;6.00;;;6.60;99.90;;;;;;4981633;28;20186;-77
2022/04/29 02:42:20;;;;;;;9.47;5.63;;;6.70;99.90;;;;;;5014263;28;20219;-77
2022/04/29 02:44:46;;;;;;;6.73;5.80;;;6.70;99.90;;;;;;4997916;28;20206;-77
2022/04/29 02:47:12;;;;;;;7.67;6.53;;;6.70;99.90;;;;;;4997836;28;20232;-77
2022/04/29 02:49:43;;;;;;;7.33;5.47;;;6.60;99.90;;;;;;5014048;28;20183;-77
2022/04/29 02:52:13;;;;;;;6.43;5.60;;;6.50;99.90;;;;;;5013910;28;20648;-77
2022/04/29 02:54:40;;;;;;;7.10;6.20;;;6.40;99.90;;;;;;5014108;28;20183;-76
2022/04/29 02:57:06;;;;;;;7.63;6.53;;;6.30;99.90;;;;;;4997716;28;20206;-77
2022/04/29 02:59:32;;;;;;;8.47;6.03;;;6.40;99.90;;;;;;5031780;28;20181;-77
2022/04/29 03:01:58;;;;;;;7.83;5.90;;;6.50;99.90;;;;;;5013751;28;20178;-77
2022/04/29 03:04:24;;;;;;;6.37;5.70;;;6.40;99.90;;;;;;5014745;28;20305;-77
2022/04/29 03:06:49;;;;;;;6.50;5.80;;;6.20;99.90;;;;;;5001035;28;20316;-77
2022/04/29 03:09:16;;;;;;;8.03;6.10;;;6.10;99.90;;;;;;5017708;28;20186;-77
2022/04/29 03:11:42;;;;;;;7.47;5.80;;;6.10;99.90;;;;;;5017677;28;20195;-76
2022/04/29 03:14:08;;;;;;;9.07;6.83;;;6.10;99.90;;;;;;5017501;28;20178;-77
2022/04/29 03:16:34;;;;;;;8.90;6.70;;;6.20;99.90;;;;;;5001205;28;20204;-77
2022/04/29 03:19:00;;;;;;;7.67;6.50;;;6.30;99.90;;;;;;5017477;28;20213;-77
2022/04/29 03:21:26;;;;;;;7.03;6.33;;;6.40;99.90;;;;;;5000968;28;20211;-76
2022/04/29 03:23:52;;;;;;;7.70;5.80;;;6.50;99.90;;;;;;5000951;28;20187;-77
2022/04/29 03:26:18;;;;;;;8.03;6.27;;;6.70;99.90;;;;;;5000933;28;20222;-77
2022/04/29 03:28:43;;;;;;;8.90;6.47;;;6.70;99.90;;;;;;5000996;28;20188;-77
2022/04/29 03:31:09;;;;;;;11.87;6.60;;;6.60;99.90;;;;;;4984717;28;20188;-77
2022/04/29 03:33:35;;;;;;;7.77;6.77;;;6.70;99.90;;;;;;5000908;28;20192;-77
2022/04/29 03:36:00;;;;;;;8.30;6.40;;;6.70;99.90;;;;;;5000863;28;20210;-76
2022/04/29 03:38:26;;;;;;;9.40;6.60;;;6.70;99.90;;;;;;4984788;28;20655;-77
2022/04/29 03:40:53;;;;;;;6.80;6.10;;;6.70;99.90;;;;;;5017204;28;20185;-77
2022/04/29 03:43:19;;;;;;;7.40;6.30;;;6.70;99.90;;;;;;5000563;28;20182;-77
2022/04/29 03:45:45;;;;;;;7.90;6.40;;;6.50;99.90;;;;;;5000529;28;20271;-77
2022/04/29 03:48:11;;;;;;;10.57;6.90;;;6.40;99.90;;;;;;5000590;28;20288;-77
2022/04/29 03:50:38;;;;;;;8.03;6.83;;;6.50;99.90;;;;;;5016960;28;20770;-77
2022/04/29 03:53:05;;;;;;;8.60;6.80;;;6.50;99.90;;;;;;5017058;28;20183;-77
2022/04/29 03:55:32;;;;;;;9.17;6.47;;;6.50;99.90;;;;;;5016480;28;20268;-77
2022/04/29 03:57:59;;;;;;;8.67;6.73;;;6.30;99.90;;;;;;4984566;28;20208;-77
2022/04/29 04:00:27;;;;;;;8.23;6.50;;;6.20;99.90;;;;;;5034390;28;20217;-77
2022/04/29 04:02:52;;;;;;;11.10;7.10;;;6.20;99.90;;;;;;5000678;28;20249;-77
2022/04/29 04:05:18;;;;;;;8.80;6.70;;;6.10;99.90;;;;;;5000313;28;20259;-77
2022/04/29 04:07:45;;;;;;;10.10;7.93;;;6.00;99.90;;;;;;5000264;28;20360;-77
2022/04/29 04:10:12;;;;;;;7.03;6.33;;;6.10;99.90;;;;;;5000150;28;20182;-77
2022/04/29 04:12:56;;;;;;;7.30;6.50;;;6.00;99.90;;;;;;4999975;28;20176;-77
2022/04/29 04:15:25;;;;;;;7.97;6.70;;;6.00;99.90;;;;;;4999643;28;20177;-77
2022/04/29 04:17:51;;;;;;;9.67;7.03;;;5.90;99.90;;;;;;5016551;28;20202;-77
2022/04/29 04:20:18;;;;;;;9.33;7.37;;;6.00;99.90;;;;;;5016560;28;20180;-77
2022/04/29 04:22:43;;;;;;;9.93;7.53;;;6.00;99.90;;;;;;5016106;28;20182;-77
2022/04/29 04:25:13;;;;;;;9.57;7.47;;;6.10;99.90;;;;;;4999936;28;20206;-77
2022/04/29 04:27:39;;;;;;;8.37;6.60;;;6.20;99.90;;;;;;5000004;28;20256;-77
2022/04/29 04:30:06;;;;;;;7.67;6.63;;;6.40;99.90;;;;;;5016063;28;20177;-77
2022/04/29 04:32:39;;;;;;;7.40;6.33;;;6.60;99.90;;;;;;4999883;28;20180;-77
2022/04/29 04:35:06;;;;;;;8.80;6.03;;;6.50;99.90;;;;;;5016060;28;20202;-77
2022/04/29 04:37:33;;;;;;;7.73;6.10;;;6.40;99.90;;;;;;5016053;28;20226;-77
2022/04/29 04:39:59;;;;;;;7.77;6.10;;;6.20;99.90;;;;;;4999919;28;20189;-77
2022/04/29 04:42:25;;;;;;;7.37;5.80;;;6.10;99.90;;;;;;5015732;28;20193;-77
2022/04/29 04:44:52;;;;;;;7.00;6.30;;;6.10;99.90;;;;;;5016019;28;20184;-77
2022/04/29 04:47:18;;;;;;;9.13;6.50;;;6.20;99.90;;;;;;5033335;28;20205;-77
2022/04/29 04:49:44;;;;;;;8.50;6.60;;;6.40;99.90;;;;;;4999464;28;20585;-77
2022/04/29 04:52:09;;;;;;;8.00;6.80;;;6.40;99.90;;;;;;5015823;28;20243;-77
2022/04/29 04:54:36;;;;;;;8.33;6.90;;;6.50;99.90;;;;;;5015338;28;20221;-77
2022/04/29 04:57:02;;;;;;;7.93;6.90;;;6.60;99.90;;;;;;4999424;28;20211;-77
2022/04/29 04:59:28;;;;;;;8.47;6.77;;;6.50;99.90;;;;;;5015500;28;20181;-76
2022/04/29 05:01:54;;;;;;;8.47;6.60;;;6.60;99.90;;;;;;4999221;28;20196;-77
2022/04/29 05:04:20;;;;;;;8.83;7.40;;;6.60;99.90;;;;;;5015662;28;20174;-77
2022/04/29 05:06:46;;;;;;;7.90;6.60;;;6.70;99.90;;;;;;4999310;28;20216;-78
2022/04/29 05:09:12;;;;;;;8.63;6.70;;;6.70;99.90;;;;;;5015669;28;20192;-78
2022/04/29 05:11:37;;;;;;;7.07;6.20;;;6.80;99.90;;;;;;5033281;28;20666;-78
2022/04/29 05:14:03;;;;;;;8.07;6.53;;;6.80;99.90;;;;;;4999261;28;20173;-78
2022/04/29 05:16:29;;;;;;;7.40;6.43;;;6.90;99.90;;;;;;4999186;28;20202;-78
2022/04/29 05:18:54;;;;;;;8.87;6.57;;;6.90;99.90;;;;;;4983232;28;20272;-78
2022/04/29 05:21:20;;;;;;;7.63;6.83;;;6.80;99.90;;;;;;4983157;28;20211;-78
2022/04/29 05:23:46;;;;;;;9.47;6.60;;;6.70;99.90;;;;;;5015284;28;20177;-78
2022/04/29 05:26:11;;;;;;;8.43;6.67;;;6.70;99.90;;;;;;4982673;28;20230;-78
2022/04/29 05:28:37;;;;;;;6.47;5.37;;;6.60;99.90;;;;;;4981796;28;20651;-78
2022/04/29 05:31:04;;;;;;;7.23;6.53;;;6.60;99.90;;;;;;4998890;28;20569;-78
2022/04/29 05:33:32;;;;;;;7.90;6.73;;;6.60;99.90;;;;;;4998723;28;20204;-78
2022/04/29 05:35:59;;;;;;;8.90;6.80;;;6.70;99.90;;;;;;5014814;28;20188;-78
2022/04/29 05:42:14;;;;;;;8.50;7.07;;;6.80;99.90;;;;;;5032456;28;20182;-78
2022/04/29 05:43:55;;;;;;;7.03;5.63;;;7.00;99.90;;;;;;5004354;28;20284;-81
2022/04/29 05:46:20;;;;;;;8.57;6.37;;;7.40;99.90;;;;;;4982800;28;20226;-79
2022/04/29 05:48:46;;;;;;;9.77;6.93;;;8.00;99.90;;;;;;5000160;28;20200;-78
2022/04/29 05:51:12;;;;;;;9.77;7.53;;;8.60;99.90;;;;;;4983423;28;20174;-78
2022/04/29 05:53:37;;;;;;;9.50;8.00;;;8.50;99.90;;;;;;4983058;28;20563;-79
2022/04/29 05:56:03;;;;;;;11.70;9.20;;;8.10;99.90;;;;;;4999811;28;20249;-79
2022/04/29 05:58:29;;;;;;;12.23;9.00;;;7.90;99.90;;;;;;5017147;28;20184;-80
2022/04/29 06:00:56;;;;;;;12.60;9.87;;;7.80;99.90;;;;;;4984038;28;20198;-80
2022/04/29 06:03:21;;;;;;;11.57;9.37;;;7.70;99.90;;;;;;4984504;28;20208;-79
2022/04/29 06:05:47;;;;;;;13.27;10.90;;;7.60;99.90;;;;;;4999761;28;20284;-79
2022/04/29 06:08:12;;;;;;;14.23;10.70;;;7.70;99.90;;;;;;4983146;28;20218;-78
2022/04/29 06:10:38;;;;;;;14.57;11.63;;;7.70;99.90;;;;;;5000213;28;20184;-79
2022/04/29 06:13:04;;;;;;;12.87;10.90;;;7.70;99.90;;;;;;5000506;28;20190;-79
2022/04/29 06:15:29;;;;;;;16.83;11.37;;;7.90;99.90;;;;;;4982841;28;20187;-80
2022/04/29 06:17:55;;;;;;;13.77;10.60;;;7.90;99.90;;;;;;5015929;28;20224;-78
2022/04/29 06:20:20;;;;;;;15.13;10.93;;;8.00;99.90;;;;;;4984425;28;20182;-79
2022/04/29 06:22:47;;;;;;;13.47;10.63;;;8.00;99.90;;;;;;4984586;28;20541;-78
2022/04/29 06:25:13;;;;;;;12.67;10.70;;;8.00;99.90;;;;;;5000226;28;20236;-78
2022/04/29 06:27:39;;;;;;;16.13;11.80;;;8.10;99.90;;;;;;5016726;28;20258;-79
2022/04/29 06:30:05;;;;;;;16.27;11.60;;;8.10;99.90;;;;;;5000235;28;20593;-78
2022/04/29 06:32:30;;;;;;;16.80;12.07;;;8.20;99.90;;;;;;5015865;28;20182;-78
2022/04/29 06:34:56;;;;;;;13.70;10.37;;;8.20;99.90;;;;;;4984280;28;20186;-78
2022/04/29 06:37:22;;;;;;;13.83;11.13;;;8.30;99.90;;;;;;4999722;28;20213;-78
2022/04/29 06:39:47;;;;;;;13.77;10.23;;;8.30;99.90;;;;;;5001379;28;20253;-77
2022/04/29 06:42:13;;;;;;;14.53;11.27;;;8.40;99.90;;;;;;4986137;28;20217;-78
2022/04/29 06:44:39;;;;;;;14.07;10.60;;;8.40;99.90;;;;;;4986331;28;20688;-78
2022/04/29 06:47:05;;;;;;;14.17;10.33;;;8.50;99.90;;;;;;5001824;28;20222;-78
2022/04/29 06:49:31;;;;;;;12.17;10.40;;;8.60;99.90;;;;;;5002027;28;20640;-78
2022/04/29 06:51:57;;;;;;;13.37;10.23;;;8.70;99.90;;;;;;5001590;28;20180;-78
2022/04/29 06:54:22;;;;;;;13.93;10.83;;;8.80;99.90;;;;;;5001709;28;20186;-78
2022/04/29 06:56:48;;;;;;;14.83;10.63;;;9.00;99.90;;;;;;4985491;28;20226;-78
2022/04/29 06:59:13;;;;;;;15.30;11.83;;;9.10;99.90;;;;;;5001910;28;20231;-78
2022/04/29 07:01:39;;;;;;;16.17;11.10;;;9.20;99.90;;;;;;5018383;28;20177;-78
2022/04/29 07:04:05;;;;;;;13.83;11.23;;;9.30;99.90;;;;;;4985549;28;20249;-78
2022/04/29 07:06:31;;;;;;;12.90;10.50;;;9.50;99.90;;;;;;4985855;28;20228;-78
2022/04/29 07:08:57;;;;;;;15.07;10.40;;;9.70;99.90;;;;;;5002027;28;20172;-78
2022/04/29 07:11:25;;;;;;;11.43;9.73;;;10.00;99.90;;;;;;5001854;28;20184;-78
2022/04/29 07:13:52;;;;;;;15.77;10.60;;;10.10;99.90;;;;;;5018000;28;20265;-78
2022/04/29 07:16:17;;;;;;;13.73;10.27;;;10.20;99.90;;;;;;5002076;28;20310;-79
2022/04/29 07:18:44;;;;;;;13.50;10.60;;;10.30;99.90;;;;;;4986681;28;20631;-79
2022/04/29 07:21:09;;;;;;;14.47;11.13;;;10.50;99.90;;;;;;5002832;28;20211;-79
2022/04/29 07:23:35;;;;;;;15.43;11.43;;;10.50;99.90;;;;;;5002253;28;20635;-79
2022/04/29 07:26:01;;;;;;;13.60;10.53;;;10.60;99.90;;;;;;5018483;28;20204;-79
2022/04/29 07:28:27;;;;;;;16.40;11.43;;;10.70;99.90;;;;;;5018993;28;20201;-79
2022/04/29 07:30:53;;;;;;;14.07;10.60;;;10.90;99.90;;;;;;5018476;28;20628;-79
2022/04/29 07:33:19;;;;;;;13.47;10.60;;;10.90;99.90;;;;;;5002472;28;20185;-79
2022/04/29 07:43:57;;;;;;;10.83;8.97;;;11.60;99.90;;;;;;5037673;28;20219;-79
2022/04/29 07:46:23;;;;;;;10.10;8.50;;;11.70;99.90;;;;;;4987005;28;20226;-79
2022/04/29 07:48:49;;;;;;;13.83;9.90;;;11.90;99.90;;;;;;5019813;28;20210;-79
2022/04/29 07:51:15;;;;;;;12.97;10.10;;;12.00;99.90;;;;;;5002512;28;20189;-79
2022/04/29 07:53:40;;;;;;;12.90;9.77;;;12.00;99.90;;;;;;5002847;28;20178;-79
2022/04/29 07:56:06;;;;;;;15.90;10.23;;;12.00;99.90;;;;;;5003152;28;20182;-80
2022/04/29 07:58:32;;;;;;;13.00;10.47;;;12.00;99.90;;;;;;4987543;28;20270;-79
2022/04/29 08:00:57;;;;;;;13.10;9.97;;;12.00;99.90;;;;;;4986886;28;20196;-79
2022/04/29 08:03:24;;;;;;;14.53;10.50;;;12.10;99.90;;;;;;5003039;28;20211;-79
2022/04/29 08:05:50;;;;;;;12.07;10.23;;;12.10;99.90;;;;;;5003615;28;20249;-79
2022/04/29 08:08:16;;;;;;;12.87;10.13;;;12.10;99.90;;;;;;5036202;28;20692;-78
2022/04/29 08:10:41;;;;;;;11.43;9.90;;;12.10;99.90;;;;;;5001266;28;20189;-78
2022/04/29 08:13:07;;;;;;;11.43;10.10;;;12.20;99.90;;;;;;4984400;28;20556;-79
2022/04/29 08:15:33;;;;;;;11.93;9.83;;;12.20;99.90;;;;;;5001457;28;20194;-78
2022/04/29 08:17:59;;;;;;;11.37;9.90;;;12.20;99.90;;;;;;5018105;28;20190;-79
2022/04/29 08:20:25;;;;;;;13.50;9.87;;;12.30;99.90;;;;;;5018286;28;20174;-79
2022/04/29 08:22:51;;;;;;;12.87;10.33;;;12.30;99.90;;;;;;5000641;28;20182;-79
2022/04/29 08:25:18;;;;;;;12.47;9.70;;;12.30;99.90;;;;;;4984737;28;20277;-78
2022/04/29 08:27:46;;;;;;;11.53;9.77;;;12.40;99.90;;;;;;5001432;28;20210;-78
2022/04/29 08:30:12;;;;;;;11.53;10.33;;;12.60;99.90;;;;;;5017228;28;20269;-78
2022/04/29 08:32:46;;;;;;;11.80;10.13;;;12.70;99.90;;;;;;5001003;28;20626;-78
2022/04/29 08:35:12;;;;;;;13.10;10.70;;;12.80;99.90;;;;;;4985448;28;20193;-79
2022/04/29 08:37:39;;;;;;;13.33;10.13;;;12.80;99.90;;;;;;5016478;28;20216;-78
2022/04/29 08:40:05;;;;;;;14.03;10.87;;;13.00;99.90;;;;;;5000707;28;20686;-78
2022/04/29 08:42:37;;;;;;;12.57;10.60;;;13.40;99.90;;;;;;5000106;28;20561;-78
2022/04/29 08:45:07;;;;;;;11.80;10.30;;;13.70;99.90;;;;;;5016771;28;20251;-78
2022/04/29 08:47:36;;;;;;;12.87;10.73;;;14.00;99.90;;;;;;5033954;28;20212;-78
2022/04/29 08:50:04;;;;;;;13.73;11.03;;;14.30;99.90;;;;;;5016930;28;20248;-79
2022/04/29 08:52:30;;;;;;;11.07;9.70;;;14.40;99.90;;;;;;5034017;28;20174;-78
2022/04/29 09:00:26;;;;;;;11.50;10.23;;;14.50;99.90;;;;;;5034044;28;20193;-78
2022/04/29 09:02:52;;;;;;;12.97;10.17;;;14.70;99.90;;;;;;4983265;28;20183;-78
2022/04/29 09:05:18;;;;;;;13.73;9.80;;;14.70;99.90;;;;;;4983941;28;20189;-78
2022/04/29 09:07:59;;;;;;;10.83;8.87;;;14.90;99.90;;;;;;4999489;28;20290;-78
2022/04/29 09:10:27;;;;;;;11.50;9.23;;;15.10;99.90;;;;;;5016109;28;20265;-78
2022/04/29 09:12:53;;;;;;;10.57;8.03;;;15.50;99.90;;;;;;5033737;28;20198;-79
2022/04/29 09:15:19;;;;;;;9.93;8.00;;;15.60;99.90;;;;;;5000726;28;20186;-78
2022/04/29 09:17:46;;;;;;;9.03;8.13;;;15.70;99.90;;;;;;4999780;28;20205;-78
2022/04/29 09:20:18;;;;;;;9.43;8.47;;;15.80;99.90;;;;;;5015961;28;20668;-78
2022/04/29 09:22:47;;;;;;;9.03;7.77;;;15.90;99.90;;;;;;5015923;28;20179;-78
2022/04/29 09:25:13;;;;;;;9.77;8.00;;;16.00;99.90;;;;;;4983686;28;20558;-79
2022/04/29 09:27:58;;;;;;;12.00;8.37;;;16.20;99.90;;;;;;4985076;28;20237;-79
2022/04/29 09:30:39;;;;;;;10.30;8.73;;;16.40;99.90;;;;;;4985716;28;20178;-78
2022/04/29 09:33:19;;;;;;;8.67;7.50;;;16.50;99.90;;;;;;5001133;28;20205;-79
2022/04/29 09:35:49;;;;;;;9.83;7.77;;;16.70;99.90;;;;;;5017374;28;20182;-78
2022/04/29 09:41:00;;;;;;;8.40;6.50;;;16.90;99.90;;;;;;5019902;28;20216;-79
2022/04/29 09:43:42;;;;;;;8.30;6.53;;;17.00;99.90;;;;;;5000037;28;20213;-79
2022/04/29 09:46:14;;;;;;;9.10;7.73;;;17.10;99.90;;;;;;5001614;28;20668;-79
2022/04/29 09:48:55;;;;;;;9.43;7.97;;;17.10;99.90;;;;;;5017292;28;20206;-79
2022/04/29 09:51:41;;;;;;;8.93;7.37;;;17.10;99.90;;;;;;5017573;28;20273;-79
2022/04/29 09:54:22;;;;;;;8.87;6.60;;;17.30;99.90;;;;;;5000975;28;20178;-79
2022/04/29 09:57:06;;;;;;;9.40;7.03;;;17.40;99.90;;;;;;5000552;28;20218;-79
2022/04/29 09:59:46;;;;;;;10.17;7.73;;;17.40;99.90;;;;;;5002211;28;20561;-79
2022/04/29 10:02:15;;;;;;;9.70;8.00;;;17.50;99.90;;;;;;5019542;28;20699;-79
2022/04/29 10:04:43;;;;;;;9.10;7.53;;;17.50;99.90;;;;;;5001408;28;20213;-79
2022/04/29 10:07:11;;;;;;;8.17;7.37;;;17.40;99.90;;;;;;5000524;28;20222;-78
2022/04/29 10:09:40;;;;;;;9.30;7.27;;;17.50;99.90;;;;;;5000640;28;20236;-78
2022/04/29 10:12:10;;;;;;;7.63;6.77;;;17.50;99.90;;;;;;5016823;28;20563;-79
2022/04/29 10:14:37;;;;;;;8.17;6.77;;;17.60;99.90;;;;;;5016410;28;20170;-79
2022/04/29 10:22:52;;;;;;;6.47;5.80;;;17.70;99.90;;;;;;5034638;28;20188;-79
2022/04/29 10:25:21;;;;;;;4.90;4.40;;;17.80;99.90;;;;;;4999892;28;20224;-80
2022/04/29 10:27:49;;;;;;;7.00;6.30;;;17.90;99.90;;;;;;5016484;28;20206;-80
2022/04/29 10:30:44;;;;;;;6.17;5.57;;;18.00;99.90;;;;;;5016113;28;20183;-78
2022/04/29 10:33:11;;;;;;;10.93;7.03;;;18.10;99.90;;;;;;5013600;28;20189;-76
2022/04/29 10:35:43;;;;;;;6.07;4.83;;;18.30;99.90;;;;;;4998272;28;20227;-79
2022/04/29 10:38:21;;;;;;;5.87;4.50;;;18.40;99.90;;;;;;5014451;28;20242;-78
2022/04/29 10:41:07;;;;;;;4.77;4.13;;;18.50;99.90;;;;;;5032077;28;20166;-78
2022/04/29 10:43:46;;;;;;;4.20;3.80;;;18.70;99.10;;;;;;5000899;28;20178;-78
2022/04/29 10:46:30;;;;;;;3.63;3.27;;;18.90;97.70;;;;;;4997950;28;20218;-78
2022/04/29 10:48:55;;;;;;;4.80;3.50;;;18.90;91.90;;;;;;5014303;28;20179;-78
2022/04/29 10:51:45;;;;;;;4.60;3.40;;;18.80;91.60;;;;;;5014575;28;20232;-78
2022/04/29 10:54:12;;;;;;;4.13;3.70;;;18.80;93.10;;;;;;4997767;28;20181;-78
2022/04/29 10:56:38;;;;;;;3.40;3.10;;;18.80;90.40;;;;;;4981745;28;20202;-79
2022/04/29 10:59:03;;;;;;;3.50;3.20;;;18.80;90.30;;;;;;5014245;28;20559;-78
2022/04/29 11:01:33;;;;;;;4.23;3.43;;;18.90;91.80;;;;;;5014294;28;20186;-78
2022/04/29 11:04:00;;;;;;;4.20;3.80;;;19.00;92.00;;;;;;4998220;28;20185;-78
2022/04/29 11:06:41;;;;;;;6.33;3.73;;;18.90;84.90;;;;;;5031465;28;20206;-79
2022/04/29 11:09:34;;;;;;;3.83;3.03;;;18.80;90.10;;;;;;4997954;28;20182;-78
2022/04/29 11:12:00;;;;;;;6.50;3.80;;;18.80;91.50;;;;;;5013872;28;20170;-79
2022/04/29 11:14:26;;;;;;;3.43;3.10;;;18.70;91.90;;;;;;4997945;28;20210;-78
2022/04/29 11:16:53;;;;;;;3.33;3.03;;;18.70;90.00;;;;;;5014263;28;20202;-79
2022/04/29 11:19:20;;;;;;;4.17;3.30;;;18.70;93.50;;;;;;4997505;28;20209;-78
2022/04/29 11:24:42;;;;;;;4.20;3.40;;;19.00;90.80;;;;;;5018343;28;20606;-78
2022/04/29 11:27:08;;;;;;;3.80;3.33;;;19.20;92.00;;;;;;5034735;28;20265;-79
2022/04/29 11:29:47;;;;;;;5.87;3.40;;;19.40;90.70;;;;;;5001115;28;20233;-78
2022/04/29 11:32:13;;;;;;;3.80;3.30;;;19.40;90.50;;;;;;4984741;28;20232;-78
2022/04/29 11:34:52;;;;;;;4.53;3.93;;;19.20;89.80;;;;;;5034858;28;20582;-78
2022/04/29 11:37:28;;;;;;;4.40;4.00;;;19.10;87.90;;;;;;5001031;28;20228;-78
2022/04/29 11:40:01;;;;;;;4.30;3.33;;;19.10;89.20;;;;;;5017240;28;20178;-78
2022/04/29 11:42:27;;;;;;;3.97;3.37;;;19.30;90.00;;;;;;5001128;28;20720;-78
2022/04/29 11:44:53;;;;;;;4.37;3.60;;;19.70;91.90;;;;;;5016928;28;20262;-78
2022/04/29 11:47:26;;;;;;;4.20;3.63;;;20.20;90.30;;;;;;5016743;28;20222;-78
2022/04/29 11:49:52;;;;;;;3.60;3.30;;;20.70;88.30;;;;;;5000625;28;20209;-78
2022/04/29 11:52:32;;;;;;;5.78;3.90;;;21.10;85.60;;;;;;5000632;28;20178;-78
2022/04/29 11:55:02;;;;;;;5.35;3.95;;;21.60;84.10;;;;;;5001919;28;20178;-78
2022/04/29 11:57:31;;;;;;;4.40;3.75;;;21.80;77.70;;;;;;5016737;28;20206;-78
2022/04/29 11:59:57;;;;;;;3.88;3.47;;;21.50;76.20;;;;;;5016912;28;20178;-78
2022/04/29 12:02:25;;;;;;;4.05;3.65;;;20.80;81.80;;;;;;5016749;28;20197;-78
2022/04/29 12:04:58;;;;;;;4.25;3.40;;;20.50;82.00;;;;;;5000757;28;20178;-78
2022/04/29 12:07:25;;;;;;;4.18;3.55;;;20.40;81.80;;;;;;5016389;28;20214;-78
2022/04/29 12:09:52;;;;;;;4.88;3.80;;;20.40;84.80;;;;;;5016710;28;20181;-78
2022/04/29 12:12:26;;;;;;;4.22;3.80;;;20.40;91.00;;;;;;5016439;28;20641;-78
2022/04/29 12:14:53;;;;;;;4.97;3.72;;;20.50;89.10;;;;;;5017013;28;20240;-78
2022/04/29 12:17:19;;;;;;;3.45;3.15;;;20.50;89.40;;;;;;4984483;28;20617;-78
2022/04/29 12:19:55;;;;;;;5.20;3.78;;;20.50;87.80;;;;;;4984437;28;20186;-78
2022/04/29 12:22:36;;;;;;;5.20;3.63;;;20.50;90.00;;;;;;5001952;28;20211;-78
2022/04/29 12:25:18;;;;;;;4.45;3.60;;;20.50;86.10;;;;;;5016938;28;20197;-78
2022/04/29 12:27:44;;;;;;;4.00;3.60;;;20.50;88.30;;;;;;5002364;28;20210;-78
2022/04/29 12:36:08;;;;;;;3.88;3.22;;;20.40;81.30;;;;;;5035741;28;20181;-79
2022/04/29 12:38:38;;;;;;;3.97;3.67;;;20.50;89.70;;;;;;5001882;28;20178;-79
2022/04/29 12:41:36;;;;;;;4.80;3.53;;;20.60;83.20;;;;;;5002480;28;20174;-78
2022/04/29 12:46:56;;;;;;;3.92;3.38;;;20.90;88.00;;;;;;5020635;28;20228;-78
2022/04/29 12:49:22;;;;;;;5.75;3.90;;;21.20;87.00;;;;;;5001552;28;20261;-78
2022/04/29 12:52:01;;;;;;;4.47;3.90;;;21.20;78.60;;;;;;5017496;28;20174;-79
2022/04/29 12:54:27;;;;;;;5.85;4.10;;;21.00;82.50;;;;;;5018547;28;20216;-79
2022/04/29 12:56:53;;;;;;;4.38;3.20;;;20.70;79.30;;;;;;5001914;28;20203;-78
2022/04/29 12:59:24;;;;;;;3.72;3.40;;;20.80;83.00;;;;;;5001655;28;20179;-78
2022/04/29 13:01:50;;;;;;;5.88;3.80;;;20.90;91.40;;;;;;5017763;28;20651;-79
2022/04/29 13:04:16;;;;;;;4.50;3.38;;;21.00;89.00;;;;;;5001778;28;20672;-79
2022/04/29 13:06:41;;;;;;;5.38;3.92;;;21.00;90.30;;;;;;5017844;28;20210;-79
2022/04/29 13:09:07;;;;;;;4.70;4.20;;;20.90;83.30;;;;;;4985759;28;20174;-78
2022/04/29 13:11:33;;;;;;;4.47;3.67;;;20.70;85.10;;;;;;5001796;28;20174;-79
2022/04/29 13:13:59;;;;;;;5.93;3.67;;;20.60;86.00;;;;;;5002059;28;20182;-79
2022/04/29 13:16:25;;;;;;;5.57;4.22;;;20.70;88.80;;;;;;5017574;28;20263;-78
2022/04/29 13:18:51;;;;;;;4.72;4.30;;;20.60;85.50;;;;;;5018306;28;20213;-79
2022/04/29 13:21:17;;;;;;;4.05;3.35;;;20.60;87.60;;;;;;5036023;28;20177;-79
2022/04/29 13:23:45;;;;;;;4.80;3.90;;;20.60;87.80;;;;;;5017135;28;20185;-78
2022/04/29 13:26:13;;;;;;;5.13;4.00;;;20.70;88.50;;;;;;5035200;28;20208;-79
2022/04/29 13:28:40;;;;;;;4.85;3.55;;;20.70;89.90;;;;;;5001900;28;20174;-79
2022/04/29 13:31:06;;;;;;;5.82;4.18;;;20.80;91.40;;;;;;4985904;28;20261;-79
2022/04/29 13:33:33;;;;;;;4.10;3.67;;;21.00;89.10;;;;;;5017797;28;20644;-78
2022/04/29 13:36:00;;;;;;;4.90;3.55;;;20.90;82.10;;;;;;5001287;28;20201;-79
2022/04/29 13:38:26;;;;;;;4.60;3.97;;;20.80;89.90;;;;;;5018045;28;20174;-79
2022/04/29 13:40:52;;;;;;;5.43;4.00;;;20.80;86.70;;;;;;4985576;28;20204;-79
2022/04/29 13:43:20;;;;;;;4.25;3.85;;;20.60;79.50;;;;;;5018253;28;20720;-79
2022/04/29 13:45:46;;;;;;;3.67;3.38;;;20.30;80.10;;;;;;5001767;28;20179;-79
2022/04/29 13:48:14;;;;;;;4.40;4.00;;;20.30;86.60;;;;;;5017278;28;20214;-79
2022/04/29 13:50:40;;;;;;;4.82;3.80;;;20.40;88.20;;;;;;5001905;28;20257;-79
2022/04/29 13:53:09;;;;;;;5.03;3.83;;;20.40;87.20;;;;;;4984874;28;20660;-79
2022/04/29 13:55:40;;;;;;;4.90;3.60;;;20.30;79.70;;;;;;5001715;28;20189;-78
2022/04/29 13:58:07;;;;;;;3.88;3.47;;;20.20;87.00;;;;;;4985967;28;20247;-79
2022/04/29 14:00:33;;;;;;;4.32;3.42;;;20.10;83.60;;;;;;5017681;28;20182;-79
2022/04/29 14:02:59;;;;;;;4.20;3.80;;;20.10;84.80;;;;;;4985359;28;20645;-79
2022/04/29 14:05:25;;;;;;;4.22;3.70;;;20.10;86.50;;;;;;5001521;28;20188;-79
2022/04/29 14:07:52;;;;;;;5.45;4.00;;;20.00;89.70;;;;;;4985684;28;20226;-79
2022/04/29 14:10:19;;;;;;;5.93;4.07;;;19.90;87.70;;;;;;5035951;28;20174;-79
2022/04/29 14:12:44;;;;;;;4.07;3.47;;;19.80;87.40;;;;;;5017946;28;20178;-79
2022/04/29 14:15:11;;;;;;;4.35;3.95;;;19.80;86.80;;;;;;4984666;28;20253;-79
2022/04/29 14:17:36;;;;;;;4.18;3.38;;;19.80;86.10;;;;;;5017551;28;20221;-79
2022/04/29 14:20:07;;;;;;;3.88;3.47;;;19.90;90.70;;;;;;5015749;23;20239;-75
2022/04/29 14:22:34;;;;;;;4.68;3.80;;;19.90;90.80;;;;;;4959587;28;20172;-75
2022/04/29 14:25:02;;;;;;;4.03;3.70;;;19.90;89.50;;;;;;4959516;28;20204;-75
2022/04/29 14:27:27;;;;;;;4.93;3.67;;;20.00;91.00;;;;;;4975155;28;20579;-75
2022/04/29 14:29:53;;;;;;;4.47;4.07;;;20.00;90.90;;;;;;4959282;28;20199;-75
2022/04/29 14:32:19;;;;;;;5.03;4.10;;;20.10;90.60;;;;;;4959270;28;20172;-75
2022/04/29 14:34:45;;;;;;;4.78;3.78;;;19.90;87.30;;;;;;4959213;28;20176;-75
2022/04/29 14:37:14;;;;;;;6.38;4.00;;;19.80;90.40;;;;;;4975466;28;20179;-75
2022/04/29 14:39:43;;;;;;;4.68;4.03;;;19.90;92.70;;;;;;4976270;28;20258;-78
2022/04/29 14:42:12;;;;;;;4.70;3.60;;;20.00;91.60;;;;;;4976693;28;20178;-77
2022/04/29 14:44:38;;;;;;;4.20;3.50;;;20.00;90.80;;;;;;4977391;28;20267;-78
2022/04/29 14:47:05;;;;;;;4.88;4.10;;;19.70;92.20;;;;;;4993694;28;20254;-77
2022/04/29 14:49:31;;;;;;;6.55;4.10;;;19.70;91.20;;;;;;4977187;28;20612;-78
2022/04/29 14:51:58;;;;;;;4.78;4.10;;;19.50;92.30;;;;;;4960478;28;20661;-77
2022/04/29 14:54:23;;;;;;;4.93;3.60;;;19.50;90.40;;;;;;4977200;28;20176;-78
2022/04/29 14:56:51;;;;;;;4.93;3.90;;;19.60;91.70;;;;;;4994414;28;20180;-78
2022/04/29 14:59:16;;;;;;;5.72;3.65;;;19.80;92.40;;;;;;4961942;28;20291;-78
2022/04/29 15:01:42;;;;;;;3.63;3.33;;;19.90;91.30;;;;;;4964819;28;20191;-78
2022/04/29 15:04:08;;;;;;;5.32;3.83;;;20.10;93.40;;;;;;4980701;28;20198;-78
2022/04/29 15:06:35;;;;;;;3.90;3.58;;;20.30;92.10;;;;;;4980549;28;20254;-78
2022/04/29 15:17:22;;;;;;;5.45;3.50;;;21.60;87.10;;;;;;4983530;28;20178;-78
2022/04/29 15:19:49;;;;;;;4.63;3.30;;;22.00;85.10;;;;;;4964192;28;20663;-78
2022/04/29 15:22:16;;;;;;;4.57;3.63;;;22.20;81.80;;;;;;4979957;28;20219;-78
2022/04/29 15:24:41;;;;;;;3.97;3.58;;;22.30;81.30;;;;;;4964154;28;20275;-78
2022/04/29 15:27:07;;;;;;;4.38;3.85;;;22.10;80.90;;;;;;4980391;28;20302;-78
2022/04/29 15:29:34;;;;;;;4.25;3.85;;;22.00;80.90;;;;;;4980109;28;20191;-78
2022/04/29 15:32:00;;;;;;;6.15;3.75;;;21.90;81.60;;;;;;4980000;28;20561;-78
2022/04/29 15:34:26;;;;;;;3.80;3.35;;;21.80;80.80;;;;;;4980190;28;20195;-77
2022/04/29 15:36:52;;;;;;;4.40;3.45;;;21.80;82.20;;;;;;4980354;28;20172;-78
2022/04/29 15:39:20;;;;;;;4.85;3.50;;;21.70;77.20;;;;;;4980150;28;20253;-78
2022/04/29 15:41:47;;;;;;;3.90;3.30;;;21.60;80.60;;;;;;4964719;28;20179;-76